Time;durP1;ratioP1;P1;durP2;ratioP2;P2;SDS_P1;SDS_P2;PMS_P1;PMS_P2;Temp;Humidity;BMP_temperature;BMP_pressure;BME280_temperature;BME280_humidity;BME280_pressure;Samples;Min_cycle;Max_cycle;Signal;HPM_P1;HPM_P2
2023/08/30 00:00:21;;;;;;;2.78;1.13;;;16.20;99.90;;;;;;5056123;28;20310;-65
2023/08/30 00:02:47;;;;;;;1.33;1.23;;;16.10;99.90;;;;;;5055211;28;20390;-65
2023/08/30 00:05:13;;;;;;;1.40;1.20;;;16.10;99.90;;;;;;5056107;28;20035;-65
2023/08/30 00:07:40;;;;;;;1.23;1.13;;;16.10;99.90;;;;;;5056825;28;20021;-65
2023/08/30 00:10:10;;;;;;;2.13;1.23;;;16.10;99.90;;;;;;5051755;28;20079;-65
2023/08/30 00:12:36;;;;;;;2.33;1.30;;;16.00;99.90;;;;;;5056819;28;20030;-64
2023/08/30 00:15:02;;;;;;;1.70;1.38;;;16.00;99.90;;;;;;5054565;28;20039;-65
2023/08/30 00:17:27;;;;;;;1.73;1.38;;;16.00;99.90;;;;;;5051578;28;20559;-65
2023/08/30 00:19:55;;;;;;;1.50;1.25;;;16.00;99.90;;;;;;5054335;28;20541;-65
2023/08/30 00:22:22;;;;;;;2.33;1.40;;;16.00;99.90;;;;;;5055269;28;20056;-65
2023/08/30 00:24:48;;;;;;;1.30;1.13;;;16.00;99.90;;;;;;5054036;28;20024;-65
2023/08/30 00:27:13;;;;;;;1.90;1.75;;;16.00;99.90;;;;;;5056912;28;20097;-65
2023/08/30 00:29:39;;;;;;;2.55;1.45;;;15.90;99.90;;;;;;5054250;28;20028;-65
2023/08/30 00:32:06;;;;;;;1.50;1.27;;;16.00;99.90;;;;;;5043862;28;20032;-65
2023/08/30 00:34:32;;;;;;;2.28;1.50;;;15.90;99.90;;;;;;5055189;28;20029;-65
2023/08/30 00:36:57;;;;;;;3.72;1.75;;;15.90;99.90;;;;;;5054574;28;20033;-65
2023/08/30 00:39:23;;;;;;;1.20;1.10;;;15.90;99.90;;;;;;5040770;28;20058;-65
2023/08/30 00:41:49;;;;;;;1.55;1.45;;;15.90;99.90;;;;;;5053604;28;20091;-65
2023/08/30 00:44:15;;;;;;;1.88;1.35;;;15.90;99.90;;;;;;5057064;28;20024;-65
2023/08/30 00:46:41;;;;;;;2.00;1.70;;;15.90;99.90;;;;;;5042133;28;20558;-65
2023/08/30 00:49:07;;;;;;;3.13;1.88;;;15.90;99.90;;;;;;5042904;28;20127;-65
2023/08/30 00:51:33;;;;;;;2.97;1.40;;;15.90;99.90;;;;;;5054714;28;20096;-65
2023/08/30 00:54:02;;;;;;;1.55;1.45;;;15.90;99.90;;;;;;5055095;28;20075;-65
2023/08/30 00:56:28;;;;;;;1.73;1.42;;;15.90;99.90;;;;;;5039556;28;20538;-65
2023/08/30 00:58:55;;;;;;;1.77;1.30;;;15.90;99.90;;;;;;5054757;28;20037;-65
2023/08/30 01:01:21;;;;;;;1.13;1.02;;;15.90;99.90;;;;;;5039763;28;20030;-65
2023/08/30 01:03:48;;;;;;;1.42;1.20;;;15.90;99.90;;;;;;5039639;28;20120;-65
2023/08/30 01:06:14;;;;;;;1.33;1.20;;;15.80;99.90;;;;;;5038464;28;20510;-65
2023/08/30 01:08:41;;;;;;;1.55;1.15;;;15.80;99.90;;;;;;5054725;28;20029;-65
2023/08/30 01:11:36;;;;;;;1.00;1.00;;;15.80;99.90;;;;;;5037584;28;20677;-65
2023/08/30 01:14:08;;;;;;;1.17;1.08;;;15.80;99.90;;;;;;5054621;28;20041;-65
2023/08/30 01:16:38;;;;;;;1.83;1.25;;;15.80;99.90;;;;;;5053668;28;20117;-65
2023/08/30 01:19:33;;;;;;;1.58;1.48;;;15.80;99.90;;;;;;5053017;28;20654;-65
2023/08/30 01:22:08;;;;;;;1.35;1.25;;;15.80;99.90;;;;;;5038405;28;20029;-65
2023/08/30 01:24:49;;;;;;;1.50;1.40;;;15.80;99.90;;;;;;5054578;28;20093;-65
2023/08/30 01:27:18;;;;;;;3.13;1.77;;;15.80;99.90;;;;;;5043081;28;20923;-65
2023/08/30 01:29:45;;;;;;;1.70;1.60;;;15.80;99.90;;;;;;5035677;28;20028;-65
2023/08/30 01:32:12;;;;;;;2.40;1.63;;;15.80;99.90;;;;;;5040498;28;20126;-65
2023/08/30 01:34:39;;;;;;;1.70;1.60;;;15.90;99.90;;;;;;5039317;28;20080;-65
2023/08/30 01:37:10;;;;;;;2.83;1.85;;;15.90;99.90;;;;;;5052405;28;20114;-65
2023/08/30 01:39:41;;;;;;;1.83;1.67;;;15.90;99.90;;;;;;5054866;28;20056;-65
2023/08/30 01:42:08;;;;;;;1.58;1.48;;;16.00;99.90;;;;;;5050215;28;20025;-65
2023/08/30 01:44:37;;;;;;;1.85;1.45;;;16.00;99.90;;;;;;5039391;28;20031;-65
2023/08/30 01:47:03;;;;;;;1.50;1.40;;;16.00;99.90;;;;;;5053444;28;20114;-65
2023/08/30 01:49:33;;;;;;;1.55;1.40;;;16.00;99.90;;;;;;5055494;28;20455;-65
2023/08/30 01:51:59;;;;;;;3.33;1.60;;;16.00;99.90;;;;;;5038492;28;20048;-64
2023/08/30 01:54:27;;;;;;;1.50;1.35;;;16.00;99.90;;;;;;5040943;28;20024;-65
2023/08/30 01:56:53;;;;;;;1.98;1.70;;;16.00;99.90;;;;;;5040346;28;20450;-65
2023/08/30 01:59:19;;;;;;;2.13;1.80;;;16.00;99.90;;;;;;5041933;28;20024;-65
2023/08/30 02:01:45;;;;;;;1.83;1.73;;;16.00;99.90;;;;;;5038293;28;20068;-65
2023/08/30 02:04:10;;;;;;;2.28;1.50;;;16.00;99.90;;;;;;5055282;28;20081;-65
2023/08/30 02:06:45;;;;;;;3.10;1.75;;;16.00;99.90;;;;;;5030087;28;20120;-65
2023/08/30 02:09:28;;;;;;;1.58;1.48;;;16.00;99.90;;;;;;5042051;28;20538;-65
2023/08/30 02:11:56;;;;;;;1.77;1.67;;;16.00;99.90;;;;;;5051840;28;20036;-65
2023/08/30 02:14:25;;;;;;;2.13;1.52;;;16.00;99.90;;;;;;5040960;28;20042;-65
2023/08/30 02:16:52;;;;;;;2.78;1.52;;;16.10;99.90;;;;;;5051525;28;20580;-65
2023/08/30 02:19:20;;;;;;;1.88;1.55;;;16.10;99.90;;;;;;5042743;28;20480;-65
2023/08/30 02:21:48;;;;;;;1.50;1.40;;;16.10;99.90;;;;;;5053029;28;20087;-65
2023/08/30 02:24:14;;;;;;;1.88;1.77;;;16.20;99.90;;;;;;5042374;28;20135;-65
2023/08/30 02:26:39;;;;;;;2.45;2.00;;;16.20;99.90;;;;;;5053010;28;20052;-65
2023/08/30 02:29:06;;;;;;;1.75;1.65;;;16.20;99.90;;;;;;5054203;28;20590;-65
2023/08/30 02:31:31;;;;;;;1.73;1.63;;;16.20;99.90;;;;;;5036456;28;20032;-65
2023/08/30 02:33:57;;;;;;;4.32;1.92;;;16.20;99.90;;;;;;5053270;28;20764;-64
2023/08/30 02:36:23;;;;;;;2.90;1.75;;;16.20;99.90;;;;;;5054941;28;20442;-65
2023/08/30 02:38:49;;;;;;;4.00;2.20;;;16.20;99.90;;;;;;5052523;28;20070;-65
2023/08/30 02:41:14;;;;;;;2.20;2.00;;;16.20;99.90;;;;;;5055784;28;20036;-64
2023/08/30 02:43:40;;;;;;;3.33;2.33;;;16.20;99.90;;;;;;5051907;28;20117;-65
2023/08/30 02:46:06;;;;;;;2.38;2.17;;;16.20;99.90;;;;;;5055713;28;20139;-65
2023/08/30 02:48:33;;;;;;;1.95;1.75;;;16.20;99.90;;;;;;5040294;28;20031;-65
2023/08/30 02:50:59;;;;;;;1.83;1.73;;;16.20;99.90;;;;;;5039430;28;20040;-65
2023/08/30 02:53:25;;;;;;;2.58;2.38;;;16.20;99.90;;;;;;5040991;28;20029;-65
2023/08/30 02:55:51;;;;;;;1.95;1.80;;;16.20;99.90;;;;;;5053068;28;20570;-65
2023/08/30 02:58:17;;;;;;;2.05;1.85;;;16.30;99.90;;;;;;5053504;28;20025;-65
2023/08/30 03:00:42;;;;;;;1.98;1.77;;;16.30;99.90;;;;;;5038411;28;20033;-65
2023/08/30 03:03:09;;;;;;;1.60;1.50;;;16.30;99.90;;;;;;5039760;28;20519;-65
2023/08/30 03:05:36;;;;;;;3.88;2.13;;;16.30;99.90;;;;;;5039651;28;20029;-65
2023/08/30 03:08:03;;;;;;;4.10;1.90;;;16.30;99.90;;;;;;5038349;28;20049;-65
2023/08/30 03:10:29;;;;;;;1.80;1.70;;;16.30;99.90;;;;;;5040296;28;20238;-65
2023/08/30 03:12:55;;;;;;;2.22;2.03;;;16.30;99.90;;;;;;5051526;28;20040;-64
2023/08/30 03:15:21;;;;;;;4.28;1.98;;;16.30;99.90;;;;;;5041186;28;20467;-65
2023/08/30 03:17:47;;;;;;;2.35;2.00;;;16.30;99.90;;;;;;5037944;28;20028;-65
2023/08/30 03:20:13;;;;;;;2.20;2.00;;;16.30;99.90;;;;;;5056212;28;20035;-65
2023/08/30 03:22:38;;;;;;;3.17;1.77;;;16.30;99.90;;;;;;5038278;28;20033;-65
2023/08/30 03:25:05;;;;;;;2.47;2.15;;;16.30;99.90;;;;;;5044586;28;20029;-65
2023/08/30 03:27:33;;;;;;;2.28;1.88;;;16.20;99.90;;;;;;5042668;28;20032;-65
2023/08/30 03:29:58;;;;;;;2.28;1.98;;;16.30;99.90;;;;;;5055845;28;20484;-65
2023/08/30 03:32:24;;;;;;;2.45;2.05;;;16.20;99.90;;;;;;5039629;28;20113;-65
2023/08/30 03:34:50;;;;;;;1.95;1.80;;;16.20;99.90;;;;;;5054053;28;20400;-65
2023/08/30 03:37:17;;;;;;;2.53;2.15;;;16.20;99.90;;;;;;5040745;28;20029;-65
2023/08/30 03:39:43;;;;;;;3.45;2.50;;;16.20;99.90;;;;;;5055834;28;20032;-65
2023/08/30 03:42:09;;;;;;;1.90;1.80;;;16.20;99.90;;;;;;5041921;28;20059;-65
2023/08/30 03:44:35;;;;;;;2.10;1.90;;;16.20;99.90;;;;;;5045890;28;20047;-65
2023/08/30 03:47:01;;;;;;;2.33;2.13;;;16.20;99.90;;;;;;5042724;28;20492;-65
2023/08/30 03:49:27;;;;;;;2.70;2.22;;;16.20;99.90;;;;;;5043559;28;20021;-65
2023/08/30 03:51:53;;;;;;;2.25;2.05;;;16.20;99.90;;;;;;5056844;28;20060;-65
2023/08/30 03:54:19;;;;;;;2.17;1.98;;;16.20;99.90;;;;;;5056326;28;20114;-65
2023/08/30 03:56:45;;;;;;;2.58;2.22;;;16.20;99.90;;;;;;5055695;28;20032;-65
2023/08/30 03:59:12;;;;;;;1.75;1.65;;;16.20;99.90;;;;;;5039997;28;20032;-65
2023/08/30 04:01:38;;;;;;;2.10;1.65;;;16.20;99.90;;;;;;5041246;28;20029;-65
2023/08/30 04:04:05;;;;;;;2.80;2.05;;;16.20;99.90;;;;;;5040973;28;20025;-65
2023/08/30 04:06:31;;;;;;;2.00;1.80;;;16.20;99.90;;;;;;5041744;28;20039;-65
2023/08/30 04:08:57;;;;;;;2.20;1.75;;;16.20;99.90;;;;;;5054368;28;20029;-65
2023/08/30 04:11:23;;;;;;;2.05;1.95;;;16.20;99.90;;;;;;5058156;28;20047;-65
2023/08/30 04:13:49;;;;;;;2.00;1.80;;;16.20;99.90;;;;;;5039201;28;20037;-65
2023/08/30 04:16:15;;;;;;;2.45;1.85;;;16.20;99.90;;;;;;5039017;28;20029;-65
2023/08/30 04:18:40;;;;;;;2.35;2.15;;;16.20;99.90;;;;;;5040171;28;20039;-65
2023/08/30 04:21:08;;;;;;;2.03;1.90;;;16.20;99.90;;;;;;5042489;28;20150;-65
2023/08/30 04:23:34;;;;;;;2.25;2.00;;;16.20;99.90;;;;;;5054078;28;20404;-65
2023/08/30 04:26:00;;;;;;;1.95;1.80;;;16.20;99.90;;;;;;5055986;28;20014;-65
2023/08/30 04:28:29;;;;;;;2.30;2.10;;;16.20;99.90;;;;;;5041654;28;20024;-65
2023/08/30 04:30:55;;;;;;;2.22;2.03;;;16.20;99.90;;;;;;5055235;28;20052;-65
2023/08/30 04:33:22;;;;;;;2.33;2.08;;;16.20;99.90;;;;;;5039911;28;20178;-65
2023/08/30 04:35:52;;;;;;;2.38;2.17;;;16.20;99.90;;;;;;5041731;28;20128;-65
2023/08/30 04:38:19;;;;;;;4.72;2.25;;;16.30;99.90;;;;;;5055189;28;20028;-65
2023/08/30 04:40:46;;;;;;;4.47;2.30;;;16.30;99.90;;;;;;5041949;28;20614;-65
2023/08/30 04:43:14;;;;;;;2.83;2.25;;;16.30;99.90;;;;;;5038121;28;20028;-65
2023/08/30 04:45:40;;;;;;;2.38;2.17;;;16.40;99.90;;;;;;5042743;28;20025;-65
2023/08/30 04:48:06;;;;;;;1.90;1.75;;;16.40;99.90;;;;;;5040872;28;20025;-65
2023/08/30 04:50:33;;;;;;;2.92;2.72;;;16.40;99.90;;;;;;5041468;28;20027;-65
2023/08/30 04:53:00;;;;;;;3.35;2.30;;;16.40;99.90;;;;;;5040360;28;20031;-65
2023/08/30 04:55:30;;;;;;;3.40;2.70;;;16.50;99.90;;;;;;5039479;28;20039;-65
2023/08/30 04:57:58;;;;;;;2.45;2.25;;;16.50;99.90;;;;;;5040247;28;20033;-65
2023/08/30 05:00:26;;;;;;;4.00;2.63;;;16.50;99.90;;;;;;5039374;28;20028;-65
2023/08/30 05:02:52;;;;;;;2.88;2.33;;;16.60;99.90;;;;;;5039037;28;20476;-65
2023/08/30 05:05:19;;;;;;;2.63;2.42;;;16.60;99.90;;;;;;5042430;28;20036;-65
2023/08/30 05:07:45;;;;;;;2.53;2.33;;;16.60;99.90;;;;;;5038854;28;20025;-65
2023/08/30 05:10:12;;;;;;;2.90;2.30;;;16.70;99.90;;;;;;5040076;28;20070;-65
2023/08/30 05:12:38;;;;;;;4.07;2.75;;;16.70;99.90;;;;;;5039118;28;20028;-65
2023/08/30 05:15:05;;;;;;;3.03;2.72;;;16.70;99.90;;;;;;5040031;28;20549;-65
2023/08/30 05:17:31;;;;;;;3.83;3.30;;;16.70;99.90;;;;;;5040448;28;20028;-65
2023/08/30 05:19:58;;;;;;;2.97;2.67;;;16.80;99.90;;;;;;5039149;28;20497;-64
2023/08/30 05:22:24;;;;;;;3.15;2.70;;;16.80;99.90;;;;;;5040443;28;20033;-65
2023/08/30 05:24:50;;;;;;;3.25;2.97;;;16.80;99.90;;;;;;5052735;28;20090;-65
2023/08/30 05:27:17;;;;;;;2.78;2.53;;;16.80;99.90;;;;;;5039790;28;20020;-64
2023/08/30 05:29:44;;;;;;;2.38;2.17;;;16.80;99.90;;;;;;5038436;28;20066;-65
2023/08/30 05:32:10;;;;;;;4.88;3.08;;;16.80;99.90;;;;;;5042343;28;20038;-65
2023/08/30 05:35:05;;;;;;;3.38;3.08;;;16.80;99.90;;;;;;4995694;28;20066;-65
2023/08/30 05:37:50;;;;;;;3.30;2.90;;;16.80;99.90;;;;;;5052032;28;20112;-65
2023/08/30 05:40:36;;;;;;;3.93;3.30;;;16.90;99.90;;;;;;5049623;28;20839;-65
2023/08/30 05:43:02;;;;;;;3.88;3.40;;;16.90;99.90;;;;;;5054842;28;20889;-65
2023/08/30 05:45:28;;;;;;;3.30;3.00;;;16.90;99.90;;;;;;5053639;28;20119;-65
2023/08/30 05:47:54;;;;;;;2.75;2.47;;;16.90;99.90;;;;;;5039580;28;20025;-65
2023/08/30 05:50:19;;;;;;;3.15;2.80;;;16.90;99.90;;;;;;5054219;28;20027;-65
2023/08/30 05:52:45;;;;;;;8.30;3.63;;;17.00;99.90;;;;;;5038661;28;20468;-65
2023/08/30 05:55:11;;;;;;;5.90;3.67;;;17.00;99.90;;;;;;5041258;28;20029;-65
2023/08/30 05:57:37;;;;;;;3.42;3.13;;;17.00;99.90;;;;;;5040300;28;20112;-65
2023/08/30 06:00:04;;;;;;;3.80;3.35;;;17.00;99.90;;;;;;5038927;28;20195;-65
2023/08/30 06:02:40;;;;;;;7.13;3.63;;;17.00;99.90;;;;;;5053709;28;20029;-65
2023/08/30 06:05:06;;;;;;;4.65;3.45;;;17.10;99.90;;;;;;5053279;28;20072;-65
2023/08/30 06:07:32;;;;;;;4.13;3.63;;;17.10;99.90;;;;;;5050066;28;20016;-65
2023/08/30 06:09:58;;;;;;;3.55;3.25;;;17.10;99.90;;;;;;5051914;28;20547;-65
2023/08/30 06:12:25;;;;;;;5.72;3.25;;;17.20;99.90;;;;;;5055642;28;20029;-65
2023/08/30 06:14:52;;;;;;;4.30;3.90;;;17.20;99.90;;;;;;5052741;28;20055;-65
2023/08/30 06:17:19;;;;;;;4.65;3.58;;;17.20;99.90;;;;;;5056058;28;20031;-64
2023/08/30 06:19:45;;;;;;;3.65;3.25;;;17.30;99.90;;;;;;5052477;28;20751;-65
2023/08/30 06:22:12;;;;;;;3.78;3.47;;;17.30;99.90;;;;;;5054991;28;20166;-65
2023/08/30 06:24:38;;;;;;;8.07;4.45;;;17.30;99.90;;;;;;5052645;28;20037;-65
2023/08/30 06:27:04;;;;;;;5.38;4.40;;;17.40;99.90;;;;;;5054335;28;20126;-65
2023/08/30 06:29:30;;;;;;;6.05;4.40;;;17.40;99.90;;;;;;5053734;28;20139;-65
2023/08/30 06:31:56;;;;;;;4.53;3.88;;;17.40;99.90;;;;;;5053555;28;20350;-65
2023/08/30 06:34:21;;;;;;;4.45;4.05;;;17.40;99.90;;;;;;5054692;28;20060;-65
2023/08/30 06:36:47;;;;;;;4.97;3.72;;;17.40;99.90;;;;;;5040281;28;20029;-65
2023/08/30 06:39:13;;;;;;;5.35;4.65;;;17.40;99.90;;;;;;5056220;28;20070;-65
2023/08/30 06:41:39;;;;;;;5.15;4.32;;;17.50;99.90;;;;;;5052539;28;20484;-65
2023/08/30 06:44:05;;;;;;;5.15;4.65;;;17.50;99.90;;;;;;5055123;28;20039;-65
2023/08/30 06:46:31;;;;;;;5.15;4.60;;;17.50;99.90;;;;;;5052466;28;20029;-65
2023/08/30 06:48:57;;;;;;;7.03;4.38;;;17.50;99.90;;;;;;5054176;28;20040;-65
2023/08/30 06:51:22;;;;;;;6.22;4.50;;;17.60;99.90;;;;;;5053765;28;20119;-65
2023/08/30 06:53:48;;;;;;;6.50;4.50;;;17.60;99.90;;;;;;5052546;28;20484;-65
2023/08/30 06:56:14;;;;;;;4.88;4.40;;;17.70;99.90;;;;;;5056168;28;20032;-65
2023/08/30 06:58:40;;;;;;;7.22;5.25;;;17.70;99.90;;;;;;5057014;28;20032;-65
2023/08/30 07:01:05;;;;;;;6.07;4.88;;;17.80;99.90;;;;;;5056695;28;20045;-65
2023/08/30 07:03:31;;;;;;;5.97;5.00;;;17.80;99.90;;;;;;5057520;28;20040;-65
2023/08/30 07:05:57;;;;;;;4.88;3.92;;;17.80;99.90;;;;;;5056384;28;20698;-65
2023/08/30 07:08:23;;;;;;;5.32;4.82;;;17.80;99.90;;;;;;5059308;28;20036;-65
2023/08/30 07:10:49;;;;;;;5.75;5.13;;;17.90;99.90;;;;;;5055583;28;20029;-65
2023/08/30 07:13:15;;;;;;;5.15;4.65;;;18.00;99.90;;;;;;5058766;28;20044;-65
2023/08/30 07:15:41;;;;;;;4.45;3.92;;;18.00;99.90;;;;;;5055650;28;20436;-65
2023/08/30 07:18:08;;;;;;;4.20;3.60;;;18.00;99.90;;;;;;5058196;28;20506;-65
2023/08/30 07:20:36;;;;;;;4.78;4.35;;;18.00;99.90;;;;;;5056652;28;20067;-65
2023/08/30 07:23:02;;;;;;;5.07;3.65;;;18.10;99.90;;;;;;5056869;28;20123;-65
2023/08/30 07:25:30;;;;;;;5.95;4.13;;;18.20;99.90;;;;;;5056957;28;20028;-65
2023/08/30 07:27:56;;;;;;;6.03;3.90;;;18.30;99.90;;;;;;5056936;28;20620;-65
2023/08/30 07:30:22;;;;;;;5.47;4.15;;;18.40;99.90;;;;;;5041001;28;20115;-65
2023/08/30 07:32:48;;;;;;;4.63;4.20;;;18.50;99.90;;;;;;5053868;28;20029;-65
2023/08/30 07:35:14;;;;;;;4.32;3.92;;;18.60;99.90;;;;;;5054117;28;20039;-65
2023/08/30 07:37:40;;;;;;;3.63;3.33;;;18.70;99.90;;;;;;5055515;28;20028;-65
2023/08/30 07:40:07;;;;;;;3.50;3.13;;;18.70;99.90;;;;;;5058651;28;20036;-65
2023/08/30 07:42:32;;;;;;;3.13;2.80;;;18.70;99.90;;;;;;5051901;28;20025;-65
2023/08/30 07:44:58;;;;;;;3.53;3.20;;;18.70;99.90;;;;;;5057545;28;20929;-65
2023/08/30 07:47:24;;;;;;;5.18;3.30;;;18.80;99.90;;;;;;5056346;28;20033;-65
2023/08/30 07:49:50;;;;;;;3.35;2.63;;;18.80;99.90;;;;;;5040783;28;20033;-65
2023/08/30 07:52:15;;;;;;;4.68;3.55;;;18.80;99.90;;;;;;5056227;28;20032;-65
2023/08/30 07:54:41;;;;;;;3.70;3.15;;;18.80;99.90;;;;;;5055791;28;20043;-65
2023/08/30 07:57:07;;;;;;;2.80;2.35;;;18.90;99.90;;;;;;5056489;28;20173;-65
2023/08/30 07:59:35;;;;;;;3.03;2.72;;;18.90;99.90;;;;;;5053352;28;20035;-65
2023/08/30 08:02:01;;;;;;;4.25;2.63;;;18.80;99.90;;;;;;5051750;28;20044;-65
2023/08/30 08:04:27;;;;;;;3.00;2.80;;;18.80;99.90;;;;;;5057761;28;20166;-65
2023/08/30 08:06:53;;;;;;;3.88;3.33;;;18.80;99.90;;;;;;5054593;28;20120;-65
2023/08/30 08:09:21;;;;;;;6.00;4.53;;;18.90;99.90;;;;;;5058316;28;20024;-65
2023/08/30 08:11:49;;;;;;;3.67;3.38;;;18.90;99.90;;;;;;5054685;28;20789;-65
2023/08/30 08:14:15;;;;;;;5.22;3.30;;;19.00;99.90;;;;;;5057663;28;20036;-65
2023/08/30 08:16:41;;;;;;;3.60;3.30;;;19.00;99.90;;;;;;5054817;28;20598;-65
2023/08/30 08:19:07;;;;;;;3.88;3.47;;;18.90;99.90;;;;;;5057264;28;20024;-66
2023/08/30 08:21:34;;;;;;;4.22;3.83;;;18.90;99.90;;;;;;5041212;28;20029;-65
2023/08/30 08:24:00;;;;;;;6.43;4.18;;;19.00;99.90;;;;;;5055478;28;20112;-65
2023/08/30 08:26:26;;;;;;;6.38;4.35;;;19.00;99.90;;;;;;5055513;28;20020;-65
2023/08/30 08:28:52;;;;;;;4.25;3.60;;;19.10;99.90;;;;;;5055288;28;20412;-65
2023/08/30 08:31:17;;;;;;;4.10;3.63;;;19.10;99.90;;;;;;5055230;28;20397;-65
2023/08/30 08:33:43;;;;;;;4.80;4.32;;;19.10;99.90;;;;;;5055395;28;20175;-65
2023/08/30 08:36:09;;;;;;;4.00;3.60;;;19.10;99.90;;;;;;5055091;28;20120;-65
2023/08/30 08:38:35;;;;;;;5.47;4.40;;;19.10;99.90;;;;;;5056759;28;20467;-65
2023/08/30 08:41:04;;;;;;;4.68;3.72;;;19.10;99.90;;;;;;5053769;28;20544;-65
2023/08/30 08:43:33;;;;;;;3.58;3.28;;;19.10;99.90;;;;;;5050530;28;20028;-65
2023/08/30 08:46:00;;;;;;;4.68;4.28;;;19.10;99.90;;;;;;5056896;28;20373;-65
2023/08/30 08:48:28;;;;;;;4.43;3.45;;;19.10;99.90;;;;;;5055477;28;20031;-65
2023/08/30 08:50:55;;;;;;;5.05;4.25;;;19.10;99.90;;;;;;5039997;28;20115;-65
2023/08/30 08:53:21;;;;;;;5.35;3.83;;;19.20;99.90;;;;;;5055427;28;20029;-65
2023/08/30 08:55:49;;;;;;;4.35;3.70;;;19.30;99.90;;;;;;5053162;28;20075;-65
2023/08/30 08:58:15;;;;;;;6.00;4.70;;;19.40;99.90;;;;;;5055636;28;20071;-65
2023/08/30 09:00:42;;;;;;;3.60;3.28;;;19.40;99.90;;;;;;5054911;28;20048;-65
2023/08/30 09:03:09;;;;;;;6.05;4.30;;;19.50;99.90;;;;;;5054616;28;20576;-65
2023/08/30 09:05:38;;;;;;;10.25;4.60;;;19.60;99.90;;;;;;5055099;28;20033;-65
2023/08/30 09:08:05;;;;;;;8.82;4.90;;;19.70;99.90;;;;;;5050845;28;20033;-65
2023/08/30 09:10:32;;;;;;;7.03;4.25;;;19.70;99.90;;;;;;5055588;28;20024;-65
2023/08/30 09:12:59;;;;;;;4.25;3.22;;;19.70;99.90;;;;;;5053956;28;20401;-65
2023/08/30 09:15:32;;;;;;;3.53;3.20;;;19.80;99.90;;;;;;5056267;28;20068;-65
2023/08/30 09:17:58;;;;;;;5.25;3.60;;;19.90;99.90;;;;;;5053075;28;20123;-65
2023/08/30 09:20:24;;;;;;;6.93;3.40;;;20.00;99.90;;;;;;5056618;28;20055;-65
2023/08/30 09:22:50;;;;;;;3.30;2.90;;;20.10;99.90;;;;;;5052964;28;20039;-65
2023/08/30 09:25:27;;;;;;;6.10;3.55;;;20.20;99.90;;;;;;5056595;28;20044;-65
2023/08/30 09:27:59;;;;;;;4.07;2.47;;;20.20;99.90;;;;;;5053184;28;20064;-65
2023/08/30 09:30:26;;;;;;;3.15;2.85;;;20.40;99.90;;;;;;5051554;28;20030;-65
2023/08/30 09:32:52;;;;;;;3.40;3.03;;;20.40;99.90;;;;;;5053012;28;20044;-65
2023/08/30 09:35:18;;;;;;;3.28;2.92;;;20.70;99.90;;;;;;5056636;28;20029;-65
2023/08/30 09:37:47;;;;;;;3.60;2.80;;;20.70;99.90;;;;;;5053140;28;20077;-65
2023/08/30 09:40:18;;;;;;;2.67;2.25;;;20.80;99.90;;;;;;5052937;28;20120;-65
2023/08/30 09:42:44;;;;;;;4.18;2.60;;;20.90;99.90;;;;;;5050162;28;20025;-65
2023/08/30 09:45:21;;;;;;;3.35;2.85;;;20.90;99.90;;;;;;5055932;28;20024;-65
2023/08/30 09:47:48;;;;;;;2.47;2.28;;;20.90;99.90;;;;;;5050577;28;20028;-65
2023/08/30 09:50:17;;;;;;;3.28;2.22;;;20.80;99.90;;;;;;5056394;28;20047;-65
2023/08/30 09:52:43;;;;;;;2.53;2.10;;;20.90;99.90;;;;;;5041699;28;20075;-65
2023/08/30 09:55:09;;;;;;;3.70;2.10;;;20.90;99.90;;;;;;5042570;28;20115;-65
2023/08/30 09:57:37;;;;;;;4.90;2.63;;;21.00;99.90;;;;;;5053017;28;20368;-65
2023/08/30 10:00:03;;;;;;;3.42;2.42;;;21.10;99.90;;;;;;5035579;28;20044;-65
2023/08/30 10:02:33;;;;;;;2.58;1.98;;;21.10;99.90;;;;;;5047699;28;20079;-65
2023/08/30 10:04:59;;;;;;;1.58;1.48;;;21.10;99.90;;;;;;5053066;28;20094;-65
2023/08/30 10:07:25;;;;;;;4.13;2.22;;;21.10;99.90;;;;;;5054581;28;20114;-65
2023/08/30 10:09:54;;;;;;;2.95;1.80;;;21.20;99.90;;;;;;5053409;28;20029;-65
2023/08/30 10:12:24;;;;;;;2.85;1.83;;;21.20;99.90;;;;;;5054691;28;20036;-66
2023/08/30 10:14:49;;;;;;;4.75;2.33;;;21.20;99.90;;;;;;5052989;28;20122;-65
2023/08/30 10:17:18;;;;;;;3.50;1.80;;;21.30;99.90;;;;;;5056002;28;20098;-65
2023/08/30 10:19:46;;;;;;;1.70;1.60;;;21.50;99.90;;;;;;5053089;28;20068;-65
2023/08/30 10:22:15;;;;;;;2.35;1.60;;;21.60;99.90;;;;;;5055789;28;20083;-65
2023/08/30 10:25:01;;;;;;;6.47;1.77;;;21.70;99.90;;;;;;5052533;28;20029;-65
2023/08/30 10:27:28;;;;;;;1.90;1.70;;;21.70;99.80;;;;;;5052687;28;20082;-65
2023/08/30 10:29:55;;;;;;;4.22;2.30;;;21.80;99.90;;;;;;5055395;28;20519;-65
2023/08/30 10:32:24;;;;;;;2.25;2.03;;;21.80;99.90;;;;;;5058876;28;20046;-65
2023/08/30 10:34:51;;;;;;;2.03;1.60;;;21.80;98.60;;;;;;5056861;28;20037;-65
2023/08/30 10:37:23;;;;;;;2.05;1.45;;;21.70;99.90;;;;;;5055334;28;20082;-65
2023/08/30 10:39:49;;;;;;;2.00;1.60;;;21.60;99.90;;;;;;5056282;28;20493;-65
2023/08/30 10:42:16;;;;;;;2.00;1.58;;;21.60;99.90;;;;;;5059464;28;20070;-65
2023/08/30 10:44:57;;;;;;;1.60;1.50;;;21.50;99.90;;;;;;5044214;28;20020;-65
2023/08/30 10:47:31;;;;;;;2.40;2.20;;;21.40;99.90;;;;;;5056062;28;20113;-65
2023/08/30 10:50:04;;;;;;;2.90;1.90;;;21.40;99.90;;;;;;5057005;28;20435;-65
2023/08/30 10:52:30;;;;;;;1.92;1.73;;;21.30;99.90;;;;;;5057615;28;20127;-65
2023/08/30 10:55:13;;;;;;;3.60;1.83;;;21.30;99.20;;;;;;5056702;28;20120;-65
2023/08/30 10:57:44;;;;;;;1.75;1.60;;;21.30;99.30;;;;;;5056811;28;20035;-65
2023/08/30 11:00:16;;;;;;;1.55;1.45;;;21.20;99.70;;;;;;5058671;28;20029;-65
2023/08/30 11:02:46;;;;;;;2.95;2.08;;;21.20;99.90;;;;;;5056639;28;20056;-65
2023/08/30 11:05:12;;;;;;;4.97;2.00;;;21.30;99.90;;;;;;5058623;28;20081;-65
2023/08/30 11:07:38;;;;;;;2.65;1.75;;;21.40;97.70;;;;;;5056765;28;20037;-65
2023/08/30 11:10:08;;;;;;;2.80;1.70;;;21.50;98.60;;;;;;5057377;28;20261;-65
2023/08/30 11:12:35;;;;;;;2.13;1.60;;;21.60;96.80;;;;;;5056573;28;20060;-65
2023/08/30 11:15:01;;;;;;;3.20;1.80;;;21.60;97.70;;;;;;5056813;28;20032;-65
2023/08/30 11:17:28;;;;;;;2.42;1.92;;;21.60;98.40;;;;;;5041885;28;20043;-65
2023/08/30 11:20:11;;;;;;;2.67;1.90;;;21.60;99.10;;;;;;5055325;28;20599;-65
2023/08/30 11:22:44;;;;;;;2.35;1.52;;;21.60;99.10;;;;;;5057049;28;20064;-66
2023/08/30 11:25:13;;;;;;;1.60;1.50;;;21.60;99.90;;;;;;5057767;28;20025;-65
2023/08/30 11:27:39;;;;;;;1.77;1.58;;;21.60;99.90;;;;;;5056311;28;20536;-65
2023/08/30 11:30:06;;;;;;;1.77;1.67;;;21.60;99.90;;;;;;5057044;28;20025;-65
2023/08/30 11:32:34;;;;;;;2.45;1.60;;;21.60;99.90;;;;;;5041285;28;20573;-65
2023/08/30 11:34:59;;;;;;;3.40;1.48;;;21.50;99.90;;;;;;5056200;28;20108;-65
2023/08/30 11:37:27;;;;;;;3.30;1.60;;;21.40;99.90;;;;;;5056873;28;20136;-65
2023/08/30 11:39:54;;;;;;;2.65;1.60;;;21.40;99.90;;;;;;5054927;28;20041;-65
2023/08/30 11:42:21;;;;;;;2.85;1.83;;;21.40;99.90;;;;;;5052024;28;20088;-65
2023/08/30 11:44:48;;;;;;;2.10;1.67;;;21.30;99.90;;;;;;5055458;28;20024;-65
2023/08/30 11:47:23;;;;;;;2.22;1.50;;;21.30;99.90;;;;;;5058920;28;20032;-65
2023/08/30 11:49:50;;;;;;;3.00;1.55;;;21.20;99.90;;;;;;5055471;28;20040;-65
2023/08/30 11:52:17;;;;;;;3.17;1.42;;;21.20;99.90;;;;;;5058386;28;20039;-65
2023/08/30 11:54:44;;;;;;;1.75;1.58;;;21.10;99.90;;;;;;5051034;28;20040;-65
2023/08/30 11:57:10;;;;;;;1.85;1.48;;;21.00;99.90;;;;;;5058204;28;20048;-65
2023/08/30 11:59:36;;;;;;;2.17;1.73;;;20.90;99.90;;;;;;5055670;28;20067;-65
2023/08/30 12:02:03;;;;;;;1.60;1.50;;;20.90;99.90;;;;;;5056737;28;20029;-65
2023/08/30 12:04:30;;;;;;;1.80;1.50;;;21.00;99.90;;;;;;5056117;28;20032;-65
2023/08/30 12:06:56;;;;;;;2.45;1.70;;;21.10;99.90;;;;;;5054798;28;20485;-65
2023/08/30 12:09:22;;;;;;;1.70;1.60;;;21.20;99.90;;;;;;5052476;28;20021;-65
2023/08/30 12:11:51;;;;;;;2.47;1.63;;;21.30;99.60;;;;;;5054565;28;20041;-65
2023/08/30 12:14:17;;;;;;;2.75;1.70;;;21.40;98.60;;;;;;5055408;28;20033;-65
2023/08/30 12:16:45;;;;;;;2.17;1.50;;;21.50;97.80;;;;;;5055979;28;20033;-65
2023/08/30 12:19:12;;;;;;;1.52;1.42;;;21.60;97.60;;;;;;5055259;28;20035;-65
2023/08/30 12:21:44;;;;;;;2.78;1.98;;;21.50;98.50;;;;;;5056874;28;20124;-65
2023/08/30 12:24:10;;;;;;;2.20;1.60;;;21.50;99.30;;;;;;5054695;28;20024;-65
2023/08/30 12:26:39;;;;;;;1.75;1.48;;;21.50;99.30;;;;;;5057404;28;20025;-65
2023/08/30 12:29:08;;;;;;;2.53;1.27;;;21.60;97.90;;;;;;5053506;28;20126;-65
2023/08/30 12:31:34;;;;;;;1.50;1.20;;;21.60;98.50;;;;;;5057657;28;20036;-65
2023/08/30 12:34:00;;;;;;;2.72;1.40;;;21.80;99.00;;;;;;5053737;28;20496;-65
2023/08/30 12:36:26;;;;;;;2.28;1.75;;;22.00;98.10;;;;;;5058104;28;20036;-65
2023/08/30 12:38:52;;;;;;;2.13;1.92;;;22.10;96.50;;;;;;5053917;28;20052;-65
2023/08/30 12:41:17;;;;;;;2.00;1.65;;;22.30;94.70;;;;;;5057577;28;20042;-65
2023/08/30 12:43:43;;;;;;;2.03;1.73;;;22.40;94.30;;;;;;5054875;28;20074;-65
2023/08/30 12:46:09;;;;;;;2.22;1.48;;;22.50;95.00;;;;;;5055746;28;20029;-65
2023/08/30 12:48:35;;;;;;;2.47;1.70;;;22.40;94.70;;;;;;5055723;28;20400;-66